Time;durP1;ratioP1;P1;durP2;ratioP2;P2;SDS_P1;SDS_P2;PMS_P1;PMS_P2;Temp;Humidity;BMP_temperature;BMP_pressure;BME280_temperature;BME280_humidity;BME280_pressure;Samples;Min_cycle;Max_cycle;Signal;HPM_P1;HPM_P2
2022/04/17 00:01:42;;;;;;;;;;;;;;;0.08;58.06;99521.03;5115368;28;20022;-62
2022/04/17 00:04:10;;;;;;;;;;;;;;;0.02;58.46;99521.72;5113873;28;19967;-65
2022/04/17 00:06:36;;;;;;;;;;;;;;;-0.02;57.98;99526.44;5099212;28;19968;-64
2022/04/17 00:09:02;;;;;;;;;;;;;;;-0.02;58.01;99531.66;5110512;28;20273;-63
2022/04/17 00:11:28;;;;;;;;;;;;;;;0.01;57.63;99540.94;5115316;28;20069;-65
2022/04/17 00:13:55;;;;;;;;;;;;;;;0.01;57.54;99533.13;5114582;28;20504;-64
2022/04/17 00:16:20;;;;;;;;;;;;;;;-0.02;58.09;99536.88;5115074;28;20309;-64
2022/04/17 00:18:46;;;;;;;;;;;;;;;-0.06;57.72;99550.38;5113627;28;19930;-64
2022/04/17 00:21:11;;;;;;;;;;;;;;;-0.08;57.83;99555.78;5113512;28;19938;-65
2022/04/17 00:23:37;;;;;;;;;;;;;;;-0.05;58.22;99544.22;5114833;28;19924;-64
2022/04/17 00:26:02;;;;;;;;;;;;;;;-0.09;57.76;99542.91;5113422;28;19931;-64
2022/04/17 00:28:28;;;;;;;;;;;;;;;-0.14;58.04;99547.81;5114623;28;19971;-65
2022/04/17 00:30:54;;;;;;;;;;;;;;;-0.18;58.51;99549.09;5113350;28;20030;-68
2022/04/17 00:33:20;;;;;;;;;;;;;;;-0.15;58.17;99564.41;5114541;28;19924;-67
2022/04/17 00:35:45;;;;;;;;;;;;;;;-0.22;58.12;99551.22;5114646;28;19953;-67
2022/04/17 00:38:11;;;;;;;;;;;;;;;-0.19;57.87;99558.69;5114233;28;19970;-68
2022/04/17 00:40:37;;;;;;;;;;;;;;;-0.20;58.50;99551.06;5114040;28;19935;-67
2022/04/17 00:43:02;;;;;;;;;;;;;;;-0.17;58.00;99561.97;5114083;28;19959;-66
2022/04/17 00:45:28;;;;;;;;;;;;;;;-0.15;57.75;99559.19;5114460;28;19932;-66
2022/04/17 00:47:53;;;;;;;;;;;;;;;-0.17;58.19;99550.75;5114291;28;19923;-65
2022/04/17 00:50:19;;;;;;;;;;;;;;;-0.18;57.63;99557.72;5114199;28;19976;-66
2022/04/17 00:52:44;;;;;;;;;;;;;;;-0.14;57.89;99545.19;5112600;28;20420;-65
2022/04/17 00:55:10;;;;;;;;;;;;;;;-0.16;57.93;99554.97;5114098;28;19932;-63
2022/04/17 00:57:36;;;;;;;;;;;;;;;-0.11;57.95;99569.13;5096002;28;20282;-65
2022/04/17 01:00:03;;;;;;;;;;;;;;;-0.16;57.78;99560.97;5112741;28;19980;-66
2022/04/17 01:02:29;;;;;;;;;;;;;;;-0.12;57.48;99561.47;5112475;28;19967;-67
2022/04/17 01:04:55;;;;;;;;;;;;;;;-0.12;57.58;99566.69;5111007;28;20393;-66
2022/04/17 01:07:21;;;;;;;;;;;;;;;-0.09;57.67;99575.00;5093564;28;20418;-67
2022/04/17 01:09:47;;;;;;;;;;;;;;;-0.16;57.51;99568.81;5113943;28;19934;-67
2022/04/17 01:12:13;;;;;;;;;;;;;;;-0.07;57.49;99561.78;5112347;28;20331;-64
2022/04/17 01:14:39;;;;;;;;;;;;;;;-0.05;57.80;99560.66;5113735;28;20460;-65
2022/04/17 01:17:05;;;;;;;;;;;;;;;-0.05;57.68;99562.44;5114002;28;19927;-65
2022/04/17 01:19:37;;;;;;;;;;;;;;;-0.04;57.48;99557.06;5113441;28;19924;-66
2022/04/17 01:22:04;;;;;;;;;;;;;;;-0.06;56.95;99571.22;5113934;28;20018;-66
2022/04/17 01:27:14;;;;;;;;;;;;;;;-0.15;57.56;99573.03;5113418;28;19935;-67
2022/04/17 01:29:39;;;;;;;;;;;;;;;-0.18;57.72;99559.50;5112476;28;19924;-65
2022/04/17 01:32:08;;;;;;;;;;;;;;;-0.12;57.61;99571.88;5113794;28;19928;-67
2022/04/17 01:34:34;;;;;;;;;;;;;;;-0.08;57.04;99587.03;5113099;28;19930;-65
2022/04/17 01:37:00;;;;;;;;;;;;;;;-0.21;57.44;99559.84;5113628;28;20035;-65
2022/04/17 01:39:26;;;;;;;;;;;;;;;-0.19;57.52;99569.13;5113282;28;20415;-63
2022/04/17 01:41:52;;;;;;;;;;;;;;;-0.18;57.56;99560.31;5112831;28;19967;-62
2022/04/17 01:44:17;;;;;;;;;;;;;;;-0.16;57.64;99573.19;5112902;28;19984;-65
2022/04/17 01:46:44;;;;;;;;;;;;;;;-0.24;57.41;99560.97;5113531;28;20341;-66
2022/04/17 01:49:09;;;;;;;;;;;;;;;-0.25;57.58;99562.78;5113110;28;19976;-67
2022/04/17 01:51:38;;;;;;;;;;;;;;;-0.32;57.67;99554.00;5113335;28;20026;-63
2022/04/17 01:54:08;;;;;;;;;;;;;;;-0.33;57.50;99580.19;5111745;28;19924;-63
2022/04/17 01:56:34;;;;;;;;;;;;;;;-0.28;57.42;99555.28;5111862;28;20256;-64
2022/04/17 01:59:00;;;;;;;;;;;;;;;-0.29;57.48;99569.31;5094734;28;20065;-64
2022/04/17 02:01:25;;;;;;;;;;;;;;;-0.34;57.66;99557.75;5111651;28;20026;-64
2022/04/17 02:03:51;;;;;;;;;;;;;;;-0.34;58.14;99558.53;5111451;28;20422;-64
2022/04/17 02:06:16;;;;;;;;;;;;;;;-0.31;57.63;99562.63;5099498;28;20362;-64
2022/04/17 02:08:44;;;;;;;;;;;;;;;-0.36;57.72;99573.50;5103969;28;19927;-67
2022/04/17 02:11:10;;;;;;;;;;;;;;;-0.31;57.50;99552.19;5112709;28;19924;-68
2022/04/17 02:13:36;;;;;;;;;;;;;;;-0.30;57.53;99561.63;5112395;28;19955;-67
2022/04/17 02:16:02;;;;;;;;;;;;;;;-0.36;56.86;99577.91;5112770;28;19971;-68
2022/04/17 02:18:28;;;;;;;;;;;;;;;-0.35;57.42;99563.94;5111090;28;19962;-64
2022/04/17 02:20:53;;;;;;;;;;;;;;;-0.42;57.63;99550.72;5112759;28;20393;-65
2022/04/17 02:23:19;;;;;;;;;;;;;;;-0.38;57.03;99562.47;5112245;28;19930;-64
2022/04/17 02:25:45;;;;;;;;;;;;;;;-0.35;56.90;99567.34;5111289;28;19923;-64
2022/04/17 02:28:10;;;;;;;;;;;;;;;-0.41;57.06;99559.34;5112197;28;19923;-64
2022/04/17 02:30:36;;;;;;;;;;;;;;;-0.38;56.94;99565.06;5112454;28;20342;-63
2022/04/17 02:33:02;;;;;;;;;;;;;;;-0.18;56.22;99562.94;5112361;28;19930;-64
2022/04/17 02:35:28;;;;;;;;;;;;;;;-0.13;56.17;99555.44;5112568;28;19928;-64
2022/04/17 02:37:53;;;;;;;;;;;;;;;-0.22;56.04;99553.00;5111965;28;19920;-64
2022/04/17 02:40:19;;;;;;;;;;;;;;;-0.25;56.57;99552.34;5110950;28;20019;-64
2022/04/17 02:42:44;;;;;;;;;;;;;;;-0.27;56.08;99562.13;5112343;28;20425;-65
2022/04/17 02:45:11;;;;;;;;;;;;;;;-0.25;56.37;99572.38;5094149;28;20419;-62
2022/04/17 02:47:51;;;;;;;;;;;;;;;-0.24;55.90;99559.22;5112281;28;19923;-64
2022/04/17 02:50:17;;;;;;;;;;;;;;;-0.37;55.83;99578.91;5112195;28;20420;-64
2022/04/17 02:52:43;;;;;;;;;;;;;;;-0.41;56.36;99547.16;5110699;28;19931;-65
2022/04/17 02:55:09;;;;;;;;;;;;;;;-0.43;55.87;99554.31;5112087;28;19932;-66
2022/04/17 02:57:36;;;;;;;;;;;;;;;-0.34;56.49;99568.16;5112211;28;19923;-66
2022/04/17 03:00:02;;;;;;;;;;;;;;;-0.35;56.11;99571.75;5110868;28;19957;-67
2022/04/17 03:07:58;;;;;;;;;;;;;;;-0.50;56.09;99566.34;5066012;28;19971;-65
2022/04/17 03:10:24;;;;;;;;;;;;;;;-0.44;55.83;99575.28;5112014;28;20407;-65
2022/04/17 03:12:50;;;;;;;;;;;;;;;-0.43;56.29;99559.53;5111840;28;19924;-66
2022/04/17 03:15:15;;;;;;;;;;;;;;;-0.36;55.96;99567.50;5111768;28;19958;-66
2022/04/17 03:17:41;;;;;;;;;;;;;;;-0.33;55.71;99569.78;5112109;28;19923;-66
2022/04/17 03:20:07;;;;;;;;;;;;;;;-0.33;55.42;99570.59;5110614;28;20018;-65
2022/04/17 03:22:32;;;;;;;;;;;;;;;-0.30;55.50;99587.69;5110275;28;19967;-65
2022/04/17 03:24:59;;;;;;;;;;;;;;;-0.31;55.55;99567.84;5110515;28;20317;-65
2022/04/17 03:27:25;;;;;;;;;;;;;;;-0.25;55.43;99573.19;5093453;28;19949;-69
2022/04/17 03:29:50;;;;;;;;;;;;;;;-0.09;55.19;99595.00;5111980;28;19923;-68
2022/04/17 03:32:16;;;;;;;;;;;;;;;0.11;54.02;99580.66;5110329;28;19923;-69
2022/04/17 03:34:41;;;;;;;;;;;;;;;0.31;53.87;99582.91;5111769;28;19942;-67
2022/04/17 03:37:08;;;;;;;;;;;;;;;0.37;53.69;99582.25;5112155;28;19959;-67
2022/04/17 03:39:33;;;;;;;;;;;;;;;0.09;53.89;99589.63;5111594;28;19923;-67
2022/04/17 03:41:59;;;;;;;;;;;;;;;0.05;53.97;99588.34;5111180;28;20473;-66
2022/04/17 03:44:25;;;;;;;;;;;;;;;0.10;53.35;99589.47;5111482;28;19931;-66
2022/04/17 03:46:51;;;;;;;;;;;;;;;-0.05;53.57;99585.91;5112124;28;19928;-67
2022/04/17 03:49:17;;;;;;;;;;;;;;;-0.21;53.90;99584.09;5112404;28;19931;-67
2022/04/17 03:51:42;;;;;;;;;;;;;;;-0.10;54.28;99593.38;5114282;28;19932;-67
2022/04/17 03:54:08;;;;;;;;;;;;;;;0.02;53.89;99612.94;5115063;28;20377;-67
2022/04/17 03:56:33;;;;;;;;;;;;;;;-0.10;53.76;99611.63;5115529;28;19924;-67
2022/04/17 03:59:01;;;;;;;;;;;;;;;-0.08;53.85;99613.09;5115180;28;19924;-67
2022/04/17 04:01:27;;;;;;;;;;;;;;;-0.09;54.32;99600.22;5115403;28;20521;-65
2022/04/17 04:03:54;;;;;;;;;;;;;;;-0.03;54.20;99608.22;5114922;28;19959;-64
2022/04/17 04:06:20;;;;;;;;;;;;;;;0.05;54.10;99623.03;5101392;28;19935;-65
2022/04/17 04:08:48;;;;;;;;;;;;;;;-0.02;53.80;99599.41;5108306;28;19930;-64
2022/04/17 04:11:13;;;;;;;;;;;;;;;-0.05;53.60;99609.38;5115115;28;19927;-63
2022/04/17 04:13:39;;;;;;;;;;;;;;;0.01;53.18;99623.53;5114584;28;19977;-64
2022/04/17 04:16:04;;;;;;;;;;;;;;;0.14;53.33;99600.38;5114730;28;19934;-65
2022/04/17 04:18:30;;;;;;;;;;;;;;;0.33;52.93;99602.63;5114572;28;19931;-62
2022/04/17 04:20:55;;;;;;;;;;;;;;;0.53;52.47;99618.75;5114962;28;20437;-63
2022/04/17 04:23:22;;;;;;;;;;;;;;;0.62;51.74;99622.97;5114869;28;20573;-62
2022/04/17 04:25:47;;;;;;;;;;;;;;;0.63;51.79;99621.16;5113744;28;19928;-64
2022/04/17 04:30:57;;;;;;;;;;;;;;;0.98;50.99;99619.91;5114851;27;19930;-63
2022/04/17 04:33:22;;;;;;;;;;;;;;;1.07;50.56;99636.34;5113179;28;19924;-64
2022/04/17 04:35:48;;;;;;;;;;;;;;;0.85;51.21;99632.66;5114651;28;19923;-64
2022/04/17 04:38:13;;;;;;;;;;;;;;;0.62;51.98;99624.75;5114420;28;20452;-63
2022/04/17 04:40:40;;;;;;;;;;;;;;;0.68;51.66;99637.13;5114039;28;19935;-63
2022/04/17 04:43:05;;;;;;;;;;;;;;;0.70;51.37;99627.31;5114118;28;19924;-63
2022/04/17 04:48:15;;;;;;;;;;;;;;;0.64;51.44;99647.06;5114270;28;19923;-64
2022/04/17 04:50:41;;;;;;;;;;;;;;;0.49;51.57;99661.78;5114392;28;19980;-64
2022/04/17 04:53:06;;;;;;;;;;;;;;;0.38;52.44;99633.41;5112667;28;19923;-65
2022/04/17 04:55:32;;;;;;;;;;;;;;;0.48;52.15;99647.13;5114410;28;19946;-64
2022/04/17 04:57:57;;;;;;;;;;;;;;;0.47;51.91;99645.47;5113894;28;20030;-64
2022/04/17 05:00:23;;;;;;;;;;;;;;;0.38;52.27;99647.31;5114058;28;19927;-65
2022/04/17 05:02:48;;;;;;;;;;;;;;;0.39;52.43;99635.88;5113724;28;19923;-65
2022/04/17 05:05:14;;;;;;;;;;;;;;;0.49;52.03;99640.91;5107994;28;19928;-66
2022/04/17 05:07:39;;;;;;;;;;;;;;;0.64;51.76;99651.47;5079257;28;19923;-64
2022/04/17 05:10:05;;;;;;;;;;;;;;;0.50;52.70;99654.75;5112629;28;19923;-64
2022/04/17 05:12:31;;;;;;;;;;;;;;;0.52;52.73;99651.00;5113915;27;19924;-64
2022/04/17 05:14:57;;;;;;;;;;;;;;;0.57;52.11;99653.94;5113959;28;19946;-65
2022/04/17 05:17:22;;;;;;;;;;;;;;;0.75;51.79;99663.38;5113454;28;19934;-67
2022/04/17 05:19:49;;;;;;;;;;;;;;;0.89;51.54;99654.84;5112452;28;20362;-65
2022/04/17 05:22:17;;;;;;;;;;;;;;;0.88;51.81;99655.81;5113498;28;19924;-63
2022/04/17 05:24:44;;;;;;;;;;;;;;;0.82;51.40;99649.47;5112362;28;19951;-61
2022/04/17 05:27:10;;;;;;;;;;;;;;;1.02;51.36;99651.69;5112181;28;19927;-61
2022/04/17 05:29:35;;;;;;;;;;;;;;;1.04;50.91;99658.38;5113510;28;19923;-60
2022/04/17 05:32:01;;;;;;;;;;;;;;;1.11;50.73;99654.09;5112015;28;20392;-61
2022/04/17 05:34:27;;;;;;;;;;;;;;;1.08;51.03;99649.22;5112036;28;20026;-61
2022/04/17 05:36:52;;;;;;;;;;;;;;;1.27;50.95;99655.03;5095281;28;19936;-63
2022/04/17 05:39:18;;;;;;;;;;;;;;;1.32;50.23;99661.38;5113042;28;19924;-63
2022/04/17 05:41:44;;;;;;;;;;;;;;;1.21;50.91;99674.00;5112919;28;19928;-61
2022/04/17 05:44:10;;;;;;;;;;;;;;;1.16;50.49;99645.75;5111725;28;20356;-62
2022/04/17 05:46:36;;;;;;;;;;;;;;;1.21;50.33;99672.19;5111811;28;19928;-61
2022/04/17 05:49:05;;;;;;;;;;;;;;;1.27;50.57;99637.56;5111559;28;19924;-63
2022/04/17 05:51:32;;;;;;;;;;;;;;;1.45;50.46;99620.81;5113334;28;19928;-63
2022/04/17 05:53:59;;;;;;;;;;;;;;;1.60;50.16;99619.09;5112774;28;19923;-63
2022/04/17 05:56:25;;;;;;;;;;;;;;;1.63;50.41;99620.53;5113276;28;19928;-65
2022/04/17 05:58:50;;;;;;;;;;;;;;;1.73;49.76;99624.53;5112456;28;19923;-68
2022/04/17 06:01:16;;;;;;;;;;;;;;;1.84;49.63;99628.53;5112573;28;19928;-66
2022/04/17 06:03:41;;;;;;;;;;;;;;;1.94;49.48;99639.59;5113088;28;19927;-65
2022/04/17 06:06:07;;;;;;;;;;;;;;;1.94;48.67;99652.66;5100904;28;19973;-65
2022/04/17 06:08:33;;;;;;;;;;;;;;;2.04;49.00;99663.69;5085661;28;19923;-66
2022/04/17 06:10:59;;;;;;;;;;;;;;;2.14;48.35;99647.75;5093943;28;19978;-65
2022/04/17 06:13:25;;;;;;;;;;;;;;;2.21;48.67;99651.31;5094157;28;20449;-65
2022/04/17 06:15:50;;;;;;;;;;;;;;;2.08;48.36;99665.94;5112923;28;19927;-66
2022/04/17 06:18:16;;;;;;;;;;;;;;;2.09;48.35;99664.94;5105374;28;19946;-64
2022/04/17 06:20:41;;;;;;;;;;;;;;;2.09;49.16;99650.09;5112624;28;19936;-65
2022/04/17 06:23:07;;;;;;;;;;;;;;;2.37;48.12;99662.59;5111161;28;19927;-63
2022/04/17 06:25:32;;;;;;;;;;;;;;;2.45;46.41;99652.06;5112610;28;20396;-64
2022/04/17 06:27:59;;;;;;;;;;;;;;;2.61;47.26;99656.31;5112252;28;19969;-64
2022/04/17 06:30:24;;;;;;;;;;;;;;;2.81;46.77;99662.66;5111161;28;19963;-65
2022/04/17 06:32:50;;;;;;;;;;;;;;;2.73;47.11;99649.66;5110742;28;20375;-64
2022/04/17 06:35:16;;;;;;;;;;;;;;;2.76;46.72;99653.72;5112280;28;20281;-64
2022/04/17 06:37:45;;;;;;;;;;;;;;;2.78;46.39;99657.78;5110959;28;20010;-70
2022/04/17 06:40:11;;;;;;;;;;;;;;;2.65;46.43;99676.75;5110621;28;19927;-66
2022/04/17 06:42:36;;;;;;;;;;;;;;;2.71;46.40;99655.06;5110452;28;20413;-67
2022/04/17 06:45:02;;;;;;;;;;;;;;;2.80;46.67;99670.72;5106710;28;19935;-64
2022/04/17 06:47:30;;;;;;;;;;;;;;;2.73;45.92;99658.31;5094377;28;19931;-65
2022/04/17 06:49:55;;;;;;;;;;;;;;;2.63;46.33;99665.63;5090051;28;19931;-65
2022/04/17 06:52:21;;;;;;;;;;;;;;;2.73;46.27;99678.44;5083136;28;19927;-64
2022/04/17 06:54:46;;;;;;;;;;;;;;;2.71;46.13;99702.19;5092671;28;19924;-64
2022/04/17 06:57:13;;;;;;;;;;;;;;;2.80;45.79;99668.09;5092006;28;19936;-64
2022/04/17 06:59:39;;;;;;;;;;;;;;;2.75;45.61;99675.66;5112356;28;19923;-65
2022/04/17 07:02:05;;;;;;;;;;;;;;;2.69;45.75;99675.38;5109611;28;20415;-66
2022/04/17 07:04:31;;;;;;;;;;;;;;;2.73;46.37;99679.25;5090995;28;19931;-64
2022/04/17 07:06:56;;;;;;;;;;;;;;;2.82;45.79;99671.31;5073461;28;19928;-62
2022/04/17 07:09:22;;;;;;;;;;;;;;;2.84;45.87;99680.63;5104570;28;20404;-64
2022/04/17 07:11:48;;;;;;;;;;;;;;;2.93;45.67;99663.03;5090520;28;19928;-65
2022/04/17 07:14:14;;;;;;;;;;;;;;;2.84;44.58;99679.81;5093786;28;19924;-65
2022/04/17 07:16:41;;;;;;;;;;;;;;;2.77;45.00;99703.28;5087065;28;19970;-66
2022/04/17 07:19:06;;;;;;;;;;;;;;;2.70;45.42;99671.75;5095030;28;19971;-68
2022/04/17 07:21:32;;;;;;;;;;;;;;;2.65;44.90;99668.09;5086129;28;19975;-61
2022/04/17 07:23:57;;;;;;;;;;;;;;;2.59;45.04;99681.84;5098892;28;19928;-62
2022/04/17 07:26:23;;;;;;;;;;;;;;;2.62;44.98;99679.72;5091161;28;19928;-62
2022/04/17 07:28:49;;;;;;;;;;;;;;;2.64;45.42;99677.72;5093785;28;19924;-62
2022/04/17 07:31:14;;;;;;;;;;;;;;;2.78;44.87;99664.84;5089921;28;19936;-61
2022/04/17 07:33:40;;;;;;;;;;;;;;;2.77;44.58;99658.78;5089868;28;19935;-64
2022/04/17 07:36:05;;;;;;;;;;;;;;;2.77;44.92;99669.25;5091996;28;20469;-63
2022/04/17 07:38:31;;;;;;;;;;;;;;;2.79;44.86;99674.28;5096423;28;19924;-67
2022/04/17 07:40:57;;;;;;;;;;;;;;;2.76;45.47;99672.03;5075571;28;20313;-66
2022/04/17 07:43:22;;;;;;;;;;;;;;;2.91;44.94;99697.25;5089223;28;19928;-65
2022/04/17 07:45:48;;;;;;;;;;;;;;;2.91;44.36;99672.84;5092869;28;19928;-64
2022/04/17 07:48:13;;;;;;;;;;;;;;;2.95;44.16;99661.03;5094241;28;20010;-64
2022/04/17 07:50:39;;;;;;;;;;;;;;;3.06;44.50;99688.56;5091223;28;19935;-62
2022/04/17 07:53:04;;;;;;;;;;;;;;;3.11;44.26;99671.31;5091849;28;20423;-65
2022/04/17 07:55:30;;;;;;;;;;;;;;;3.11;43.66;99681.78;5092017;28;20430;-61
2022/04/17 07:58:04;;;;;;;;;;;;;;;3.14;43.10;99715.47;5091735;28;19968;-63
2022/04/17 08:00:44;;;;;;;;;;;;;;;3.09;43.82;99688.19;5090629;28;19981;-68
2022/04/17 08:03:20;;;;;;;;;;;;;;;3.06;43.48;99725.22;5090651;28;19924;-70
2022/04/17 08:05:46;;;;;;;;;;;;;;;3.06;43.12;99683.31;5073148;28;19928;-66
2022/04/17 08:08:11;;;;;;;;;;;;;;;3.13;43.63;99686.88;5091388;28;20141;-68
2022/04/17 08:10:37;;;;;;;;;;;;;;;3.07;43.85;99705.94;5115246;28;19942;-67
2022/04/17 08:13:03;;;;;;;;;;;;;;;2.95;43.47;99700.31;5106941;28;19971;-67
2022/04/17 08:15:29;;;;;;;;;;;;;;;3.09;43.39;99722.25;5093205;28;19928;-69
2022/04/17 08:17:54;;;;;;;;;;;;;;;3.11;42.89;99694.09;5094428;28;19920;-66
2022/04/17 08:20:20;;;;;;;;;;;;;;;3.15;42.98;99705.84;5102555;28;19938;-71
2022/04/17 08:22:46;;;;;;;;;;;;;;;3.24;43.03;99681.16;5090396;28;20339;-71
2022/04/17 08:25:11;;;;;;;;;;;;;;;3.28;43.52;99697.34;5089871;28;20317;-67
2022/04/17 08:27:50;;;;;;;;;;;;;;;3.23;43.70;99679.53;5094245;28;20245;-67
2022/04/17 08:30:19;;;;;;;;;;;;;;;3.30;43.51;99706.63;5090583;28;19932;-70
2022/04/17 08:32:44;;;;;;;;;;;;;;;3.26;43.08;99700.13;5068916;28;19924;-67
2022/04/17 08:35:10;;;;;;;;;;;;;;;3.27;42.85;99708.81;5087670;28;19980;-71
2022/04/17 08:37:35;;;;;;;;;;;;;;;3.21;43.52;99712.13;5091936;28;19927;-65
2022/04/17 08:40:01;;;;;;;;;;;;;;;3.22;43.30;99685.78;5088055;28;19931;-67
2022/04/17 08:42:27;;;;;;;;;;;;;;;3.23;43.62;99683.97;5093762;28;19923;-70
2022/04/17 08:44:55;;;;;;;;;;;;;;;3.41;43.18;99692.25;5089760;28;19931;-67
2022/04/17 08:47:21;;;;;;;;;;;;;;;3.56;43.06;99700.06;5093362;28;19924;-67
2022/04/17 08:49:46;;;;;;;;;;;;;;;3.61;42.54;99698.53;5093358;28;20022;-64
2022/04/17 08:52:15;;;;;;;;;;;;;;;3.80;41.17;99706.81;5088290;28;20325;-67
2022/04/17 08:54:43;;;;;;;;;;;;;;;3.90;41.62;99720.44;5093945;28;19946;-65
2022/04/17 08:57:09;;;;;;;;;;;;;;;4.10;41.59;99704.91;5092290;28;19938;-64
2022/04/17 08:59:35;;;;;;;;;;;;;;;4.21;40.42;99709.66;5073346;28;19925;-64
2022/04/17 09:02:10;;;;;;;;;;;;;;;4.36;41.29;99719.28;5073090;28;19959;-63
2022/04/17 09:04:40;;;;;;;;;;;;;;;4.50;40.79;99726.22;5072066;28;19924;-64
2022/04/17 09:07:07;;;;;;;;;;;;;;;4.56;40.25;99709.75;5073757;28;19928;-65
2022/04/17 09:09:36;;;;;;;;;;;;;;;4.65;40.62;99708.59;5113493;28;19981;-66
2022/04/17 09:12:02;;;;;;;;;;;;;;;4.63;40.36;99720.28;5113997;28;19927;-63
2022/04/17 09:14:27;;;;;;;;;;;;;;;4.63;40.15;99709.78;5113683;28;19969;-63
2022/04/17 09:16:53;;;;;;;;;;;;;;;4.57;40.88;99716.63;5114151;28;19924;-65
2022/04/17 09:19:19;;;;;;;;;;;;;;;4.65;40.72;99719.09;5113424;28;19929;-65
2022/04/17 09:21:45;;;;;;;;;;;;;;;4.61;39.89;99709.97;5113395;28;19934;-65
2022/04/17 09:24:14;;;;;;;;;;;;;;;4.78;40.44;99742.03;5113412;28;20018;-65
2022/04/17 09:26:46;;;;;;;;;;;;;;;4.98;39.91;99721.94;5113892;28;19924;-64
2022/04/17 09:29:19;;;;;;;;;;;;;;;5.10;40.79;99688.06;5113105;28;19924;-65
2022/04/17 09:31:44;;;;;;;;;;;;;;;5.16;40.24;99726.72;5112387;28;20014;-65
2022/04/17 09:34:10;;;;;;;;;;;;;;;5.16;39.86;99704.88;5113157;28;19931;-65
2022/04/17 09:36:37;;;;;;;;;;;;;;;5.11;39.62;99702.81;5113343;28;19927;-64
2022/04/17 09:39:15;;;;;;;;;;;;;;;5.08;40.01;99705.84;5113405;28;19935;-65
2022/04/17 09:41:50;;;;;;;;;;;;;;;5.13;39.89;99702.63;5111811;28;19927;-64
2022/04/17 09:44:26;;;;;;;;;;;;;;;5.46;39.81;99714.09;5111711;28;19923;-64
2022/04/17 09:46:55;;;;;;;;;;;;;;;5.42;39.88;99709.47;5111335;28;19939;-65
2022/04/17 09:49:21;;;;;;;;;;;;;;;5.49;39.28;99707.66;5112834;28;19923;-64
2022/04/17 09:51:46;;;;;;;;;;;;;;;5.42;38.72;99727.84;5113436;28;19927;-64
2022/04/17 09:54:12;;;;;;;;;;;;;;;5.44;39.91;99715.31;5113036;28;19980;-65
2022/04/17 09:56:40;;;;;;;;;;;;;;;5.46;39.11;99703.59;5094503;28;19982;-65
2022/04/17 09:59:17;;;;;;;;;;;;;;;5.59;39.64;99716.00;5112669;28;19923;-66
2022/04/17 10:01:44;;;;;;;;;;;;;;;5.66;39.15;99731.78;5112884;28;19938;-64
2022/04/17 10:04:09;;;;;;;;;;;;;;;5.77;38.60;99707.56;5111154;28;19961;-64
2022/04/17 10:06:35;;;;;;;;;;;;;;;5.80;38.38;99715.06;5111296;28;20020;-64
2022/04/17 10:09:00;;;;;;;;;;;;;;;5.68;39.74;99716.63;5094339;28;19931;-64
2022/04/17 10:11:27;;;;;;;;;;;;;;;5.63;40.28;99735.63;5094465;28;20399;-64
2022/04/17 10:13:52;;;;;;;;;;;;;;;5.62;39.89;99738.47;5112450;28;19932;-65
2022/04/17 10:16:19;;;;;;;;;;;;;;;5.69;39.11;99716.44;5094510;28;20570;-64
2022/04/17 10:18:44;;;;;;;;;;;;;;;5.75;39.16;99714.84;5112364;28;19924;-65
2022/04/17 10:21:10;;;;;;;;;;;;;;;5.77;38.93;99747.03;5112201;28;19935;-64
2022/04/17 10:23:37;;;;;;;;;;;;;;;5.66;38.15;99737.88;5112578;28;19930;-65
2022/04/17 10:26:03;;;;;;;;;;;;;;;5.59;38.47;99712.53;5112418;28;20023;-65
2022/04/17 10:28:29;;;;;;;;;;;;;;;5.53;37.94;99732.56;5112449;28;20364;-65
2022/04/17 10:31:10;;;;;;;;;;;;;;;5.46;38.67;99705.41;5111118;28;20026;-65
2022/04/17 10:33:58;;;;;;;;;;;;;;;5.46;38.63;99708.03;5112462;28;20308;-64
2022/04/17 10:36:27;;;;;;;;;;;;;;;5.64;38.40;99731.19;5101524;28;19942;-64
2022/04/17 10:39:12;;;;;;;;;;;;;;;5.64;37.74;99718.03;5111911;28;20428;-64
2022/04/17 10:41:38;;;;;;;;;;;;;;;5.52;38.55;99723.03;5111847;28;19975;-65
2022/04/17 10:44:04;;;;;;;;;;;;;;;5.51;37.60;99713.53;5111896;28;20026;-65
2022/04/17 10:46:32;;;;;;;;;;;;;;;5.49;37.83;99751.53;5112450;28;20038;-64
2022/04/17 10:48:58;;;;;;;;;;;;;;;5.54;37.52;99731.56;5111585;28;19923;-64
2022/04/17 10:51:30;;;;;;;;;;;;;;;5.63;37.92;99733.00;5112282;28;19927;-64
2022/04/17 10:54:03;;;;;;;;;;;;;;;5.67;38.06;99717.63;5110950;28;19956;-65
2022/04/17 10:56:29;;;;;;;;;;;;;;;5.81;37.43;99736.91;5112509;28;19949;-64
2022/04/17 10:58:59;;;;;;;;;;;;;;;5.61;38.18;99711.34;5115966;28;19924;-65
2022/04/17 11:01:43;;;;;;;;;;;;;;;5.64;38.93;99708.31;5115076;28;20297;-65
2022/04/17 11:04:23;;;;;;;;;;;;;;;5.68;37.20;99712.19;5116340;28;19975;-65
2022/04/17 11:06:53;;;;;;;;;;;;;;;5.63;36.99;99726.94;5116616;28;19927;-65
2022/04/17 11:09:20;;;;;;;;;;;;;;;5.60;37.40;99719.44;5115907;28;20393;-64
2022/04/17 11:11:46;;;;;;;;;;;;;;;5.66;37.78;99731.78;5116545;28;19933;-64
2022/04/17 11:14:12;;;;;;;;;;;;;;;5.72;37.99;99711.78;5114613;28;20378;-65
2022/04/17 11:17:11;;;;;;;;;;;;;;;5.64;36.73;99721.47;5100520;28;19935;-67
2022/04/17 11:19:38;;;;;;;;;;;;;;;5.66;36.66;99711.56;5075981;28;19924;-66
2022/04/17 11:22:05;;;;;;;;;;;;;;;5.66;37.70;99718.66;5074471;28;19959;-69
2022/04/17 11:24:49;;;;;;;;;;;;;;;5.50;36.93;99732.13;5089613;28;19938;-69
2022/04/17 11:27:14;;;;;;;;;;;;;;;5.66;37.95;99711.56;5083351;28;20309;-70
2022/04/17 11:30:03;;;;;;;;;;;;;;;5.77;37.00;99712.00;5115452;28;19927;-67
2022/04/17 11:32:29;;;;;;;;;;;;;;;6.02;37.60;99702.56;5095742;28;19977;-70
2022/04/17 11:35:03;;;;;;;;;;;;;;;6.04;36.83;99699.75;5080744;28;20026;-69
2022/04/17 11:37:29;;;;;;;;;;;;;;;6.06;36.42;99706.44;5113305;28;19930;-71
2022/04/17 11:39:57;;;;;;;;;;;;;;;6.06;36.84;99711.72;5115246;28;20022;-68
2022/04/17 11:42:23;;;;;;;;;;;;;;;6.06;35.92;99711.72;5114949;28;19935;-70
2022/04/17 11:44:48;;;;;;;;;;;;;;;6.00;36.38;99706.41;5096794;28;20389;-71
2022/04/17 11:47:14;;;;;;;;;;;;;;;6.04;35.65;99712.91;5087441;28;19925;-68
2022/04/17 11:49:40;;;;;;;;;;;;;;;6.03;35.92;99711.28;5114923;28;19969;-66
2022/04/17 11:52:16;;;;;;;;;;;;;;;6.16;36.36;99694.72;5115312;28;19928;-66
2022/04/17 11:54:42;;;;;;;;;;;;;;;6.21;35.50;99711.53;5109519;28;19977;-67
2022/04/17 11:57:08;;;;;;;;;;;;;;;6.20;35.16;99696.72;5094181;28;19928;-66
2022/04/17 11:59:49;;;;;;;;;;;;;;;6.13;35.06;99704.63;5114761;28;19930;-67
2022/04/17 12:02:16;;;;;;;;;;;;;;;6.09;35.36;99687.63;5088242;28;20378;-69
2022/04/17 12:04:42;;;;;;;;;;;;;;;6.16;35.48;99692.09;5114874;28;19976;-69
2022/04/17 12:07:11;;;;;;;;;;;;;;;6.30;35.77;99697.16;5094047;28;19934;-67
2022/04/17 12:09:37;;;;;;;;;;;;;;;6.29;35.32;99694.72;5090267;28;19928;-68
2022/04/17 12:12:09;;;;;;;;;;;;;;;6.34;35.07;99681.75;5074196;28;19939;-66
2022/04/17 12:14:35;;;;;;;;;;;;;;;6.40;34.85;99688.84;5072447;28;19924;-68
2022/04/17 12:17:00;;;;;;;;;;;;;;;6.28;35.22;99687.84;5074869;28;20342;-69
2022/04/17 12:19:26;;;;;;;;;;;;;;;6.22;34.87;99688.63;5111916;28;19931;-71
2022/04/17 12:21:52;;;;;;;;;;;;;;;6.20;35.17;99696.72;5114734;28;20065;-71
2022/04/17 12:24:18;;;;;;;;;;;;;;;6.10;35.52;99689.22;5113829;28;19933;-65
2022/04/17 12:26:43;;;;;;;;;;;;;;;6.03;35.56;99682.31;5074470;28;19936;-66
2022/04/17 12:29:09;;;;;;;;;;;;;;;6.18;35.73;99679.50;5105747;28;20025;-68
2022/04/17 12:31:34;;;;;;;;;;;;;;;6.28;35.05;99696.53;5080820;28;19936;-65
2022/04/17 12:34:10;;;;;;;;;;;;;;;6.30;34.21;99699.78;5088686;28;19931;-67
2022/04/17 12:36:38;;;;;;;;;;;;;;;6.27;34.66;99680.97;5096465;28;19928;-67
2022/04/17 12:39:04;;;;;;;;;;;;;;;6.44;34.80;99676.91;5095418;28;19924;-65
2022/04/17 12:41:36;;;;;;;;;;;;;;;6.30;34.49;99691.09;5113848;28;19928;-65
2022/04/17 12:44:03;;;;;;;;;;;;;;;6.29;33.99;99686.81;5113885;28;20022;-64
2022/04/17 12:46:29;;;;;;;;;;;;;;;6.41;34.95;99687.81;5049523;28;20392;-64
2022/04/17 12:49:08;;;;;;;;;;;;;;;6.66;34.06;99693.28;5080897;28;20476;-66
2022/04/17 12:51:34;;;;;;;;;;;;;;;6.61;34.16;99685.19;5114278;28;19927;-64
2022/04/17 12:54:00;;;;;;;;;;;;;;;6.57;33.94;99687.44;5102750;28;19924;-63
2022/04/17 12:56:25;;;;;;;;;;;;;;;6.50;34.13;99688.44;5092428;28;19935;-67
2022/04/17 12:58:51;;;;;;;;;;;;;;;6.47;33.68;99680.94;5107798;28;19969;-63
2022/04/17 13:01:20;;;;;;;;;;;;;;;6.35;34.82;99715.81;5113428;28;20042;-67
2022/04/17 13:03:46;;;;;;;;;;;;;;;6.36;34.41;99685.81;5113897;28;19976;-67
2022/04/17 13:06:17;;;;;;;;;;;;;;;6.44;34.96;99676.06;5093348;28;20194;-67
2022/04/17 13:08:43;;;;;;;;;;;;;;;6.45;34.75;99669.81;5098667;28;19928;-67